Time;durP1;ratioP1;P1;durP2;ratioP2;P2;SDS_P1;SDS_P2;PMS_P1;PMS_P2;Temp;Humidity;BMP_temperature;BMP_pressure;BME280_temperature;BME280_humidity;BME280_pressure;Samples;Min_cycle;Max_cycle;Signal;HPM_P1;HPM_P2
2021/10/31 00:01:12;;;;;;;13.35;9.23;;;;;;;10.91;nan;99928.38;5030607;28;20045;-77
2021/10/31 00:03:38;;;;;;;12.98;9.52;;;;;;;10.87;nan;99933.19;5031986;28;20045;-77
2021/10/31 00:06:03;;;;;;;13.23;10.40;;;;;;;10.86;nan;99931.50;5031873;28;20501;-77
2021/10/31 00:08:29;;;;;;;14.07;10.02;;;;;;;10.81;nan;99933.84;5031775;28;20502;-77
2021/10/31 00:10:56;;;;;;;12.82;9.60;;;;;;;10.74;nan;99931.03;5029504;28;20494;-77
2021/10/31 00:13:22;;;;;;;15.52;10.15;;;;;;;10.73;nan;99932.03;5031702;28;20128;-77
2021/10/31 00:15:48;;;;;;;13.45;9.63;;;;;;;10.73;nan;99932.03;5030445;28;20196;-77
2021/10/31 00:18:15;;;;;;;13.65;10.07;;;;;;;10.73;nan;99934.69;5031275;28;20033;-77
2021/10/31 00:20:41;;;;;;;13.90;10.48;;;;;;;10.74;nan;99935.50;5030361;28;20025;-77
2021/10/31 00:23:08;;;;;;;15.07;10.43;;;;;;;10.72;nan;99934.84;5031302;28;20029;-77
2021/10/31 00:25:34;;;;;;;15.38;10.77;;;;;;;10.72;nan;99934.84;5030070;28;20041;-76
2021/10/31 00:28:00;;;;;;;13.02;9.77;;;;;;;10.62;nan;99921.78;5029972;28;20030;-76
2021/10/31 00:30:26;;;;;;;19.05;10.90;;;;;;;10.65;nan;99918.00;5029878;28;20044;-77
2021/10/31 00:32:52;;;;;;;13.77;10.27;;;;;;;10.68;nan;99897.34;5029637;28;20425;-76
2021/10/31 00:35:18;;;;;;;14.43;10.40;;;;;;;10.66;nan;99896.69;5031532;28;20044;-77
2021/10/31 00:37:45;;;;;;;14.05;10.48;;;;;;;10.58;nan;99918.69;5031377;28;20029;-77
2021/10/31 00:40:12;;;;;;;12.88;10.25;;;;;;;10.62;nan;99922.63;5031092;28;20044;-77
2021/10/31 00:42:39;;;;;;;14.20;10.35;;;;;;;10.72;nan;99934.84;5030007;28;20506;-77
2021/10/31 00:45:06;;;;;;;13.13;10.20;;;;;;;10.77;nan;99930.72;5031433;28;20113;-77
2021/10/31 00:47:33;;;;;;;13.30;10.68;;;;;;;10.77;nan;99925.44;5031727;28;20079;-77
2021/10/31 00:50:00;;;;;;;12.40;9.20;;;;;;;10.75;nan;99935.34;5014103;28;20025;-77
2021/10/31 00:52:31;;;;;;;13.15;9.70;;;;;;;10.78;nan;99934.19;5029479;28;20566;-77
2021/10/31 00:54:58;;;;;;;13.30;10.25;;;;;;;10.78;nan;99947.41;5030150;28;20044;-76
2021/10/31 00:57:25;;;;;;;13.75;10.07;;;;;;;10.74;nan;99946.91;5030024;28;20041;-77
2021/10/31 00:59:52;;;;;;;13.05;9.85;;;;;;;10.73;nan;99947.91;5029582;28;20064;-76
2021/10/31 01:02:18;;;;;;;13.48;10.07;;;;;;;10.68;nan;99944.09;5030574;28;20041;-77
2021/10/31 01:04:52;;;;;;;12.82;9.70;;;;;;;10.70;nan;99945.59;5030901;28;20057;-77
2021/10/31 01:07:24;;;;;;;10.82;8.50;;;;;;;10.67;nan;99935.34;5029761;28;20305;-76
2021/10/31 01:10:08;;;;;;;14.52;10.63;;;;;;;10.62;nan;99927.91;5030732;28;20029;-77
2021/10/31 01:13:01;;;;;;;13.07;9.52;;;;;;;10.61;nan;99931.56;5029288;28;20044;-77
2021/10/31 01:15:34;;;;;;;12.10;9.98;;;;;;;10.62;nan;99927.09;5030969;28;20044;-77
2021/10/31 01:18:06;;;;;;;13.77;10.05;;;;;;;10.66;nan;99914.38;5030994;28;20038;-77
2021/10/31 01:20:53;;;;;;;13.55;9.77;;;;;;;10.61;nan;99896.38;5029192;28;20056;-77
2021/10/31 01:23:28;;;;;;;12.93;9.77;;;;;;;10.65;nan;99918.00;5030299;28;20061;-77
2021/10/31 01:26:21;;;;;;;12.18;9.30;;;;;;;10.66;nan;99920.47;5029091;28;20141;-77
2021/10/31 01:29:12;;;;;;;12.43;8.77;;;;;;;10.65;nan;99907.41;5028782;28;20030;-77
2021/10/31 01:32:16;;;;;;;12.57;9.07;;;;;;;10.69;nan;99904.28;5030729;28;20037;-76
2021/10/31 01:35:02;;;;;;;9.55;7.80;;;;;;;10.81;nan;99910.03;5027549;28;20405;-76
2021/10/31 01:37:29;;;;;;;11.85;8.30;;;;;;;10.83;nan;99910.69;5030530;28;20033;-77
2021/10/31 01:40:04;;;;;;;10.02;7.45;;;;;;;10.83;nan;99916.81;5029302;28;20041;-77
2021/10/31 01:42:49;;;;;;;10.85;8.48;;;;;;;10.86;nan;99905.06;5028098;28;20032;-76
2021/10/31 01:45:28;;;;;;;8.90;7.00;;;;;;;10.87;nan;99897.94;5029301;28;20608;-77
2021/10/31 01:48:26;;;;;;;8.23;6.90;;;;;;;10.98;nan;99900.25;5028861;28;20041;-77
2021/10/31 01:50:58;;;;;;;9.13;6.85;;;;;;;11.03;nan;99898.72;5029926;28;20040;-77
2021/10/31 01:53:59;;;;;;;9.73;6.90;;;;;;;11.17;nan;99888.44;5029115;28;20033;-77
2021/10/31 01:56:28;;;;;;;7.78;6.30;;;;;;;11.25;nan;99897.19;5005760;28;20411;-77
2021/10/31 01:59:16;;;;;;;8.10;6.43;;;;;;;11.15;nan;99925.66;5028669;28;20057;-77
2021/10/31 02:01:45;;;;;;;9.20;7.20;;;;;;;10.99;nan;99931.00;5030407;28;20087;-76
2021/10/31 02:04:14;;;;;;;9.40;6.90;;;;;;;10.98;nan;99918.75;5029297;28;20383;-77
2021/10/31 02:06:50;;;;;;;10.20;7.40;;;;;;;11.05;nan;99931.13;5029545;28;20090;-77
2021/10/31 02:09:19;;;;;;;9.95;7.75;;;;;;;11.09;nan;99930.81;5029889;28;20142;-77
2021/10/31 02:11:47;;;;;;;9.52;7.28;;;;;;;11.02;nan;99936.78;5029835;28;20223;-77
2021/10/31 02:14:14;;;;;;;11.85;8.52;;;;;;;11.09;nan;99921.06;5029566;28;20433;-77
2021/10/31 02:16:44;;;;;;;10.05;7.82;;;;;;;11.15;nan;99920.34;5029463;28;20038;-77
2021/10/31 02:19:22;;;;;;;11.82;7.95;;;;;;;11.17;nan;99918.38;5029586;28;20371;-77
2021/10/31 02:21:55;;;;;;;11.20;7.90;;;;;;;11.29;nan;99925.94;5029920;28;20056;-77
2021/10/31 02:24:22;;;;;;;11.73;8.18;;;;;;;11.35;nan;99930.56;5029051;28;20052;-77
2021/10/31 02:26:50;;;;;;;13.45;9.00;;;;;;;11.43;nan;99927.88;5029887;28;20494;-77
2021/10/31 02:29:17;;;;;;;10.00;8.13;;;;;;;11.37;nan;99929.41;5028239;28;20038;-77
2021/10/31 02:31:43;;;;;;;12.45;8.15;;;;;;;11.35;nan;99933.22;5028209;28;20033;-77
2021/10/31 02:34:10;;;;;;;11.95;8.18;;;;;;;11.36;nan;99940.97;5027911;28;20387;-77
2021/10/31 02:36:36;;;;;;;11.55;8.48;;;;;;;11.35;nan;99941.16;5031713;28;20033;-77
2021/10/31 02:39:07;;;;;;;10.45;8.35;;;;;;;11.36;nan;99933.03;5032019;28;20156;-77
2021/10/31 02:41:35;;;;;;;11.07;8.35;;;;;;;11.29;nan;99923.28;5032253;28;20056;-77
2021/10/31 02:44:03;;;;;;;11.48;8.50;;;;;;;11.26;nan;99921.81;5032527;28;20034;-77
2021/10/31 02:46:32;;;;;;;11.75;8.85;;;;;;;11.29;nan;99918.00;5040196;28;20556;-77
2021/10/31 02:48:59;;;;;;;10.90;8.73;;;;;;;11.23;nan;99923.00;5031463;28;20579;-77
2021/10/31 02:51:52;;;;;;;13.32;9.38;;;;;;;11.21;nan;99917.03;5033327;28;20091;-77
2021/10/31 02:54:21;;;;;;;12.30;9.02;;;;;;;11.24;nan;99908.75;5032567;28;20033;-77
2021/10/31 02:57:15;;;;;;;11.50;9.40;;;;;;;11.21;nan;99919.69;5033244;28;20079;-77
2021/10/31 02:59:49;;;;;;;12.20;9.55;;;;;;;11.18;nan;99912.09;5027452;28;20037;-77
2021/10/31 03:02:17;;;;;;;13.38;9.93;;;;;;;11.21;nan;99902.97;5032732;28;20473;-77
2021/10/31 03:04:44;;;;;;;11.82;8.80;;;;;;;11.08;nan;99908.78;5032679;28;20033;-77
2021/10/31 03:07:10;;;;;;;12.02;9.38;;;;;;;10.96;nan;99904.88;5032733;28;20371;-77
2021/10/31 03:09:35;;;;;;;11.73;9.52;;;;;;;10.95;nan;99908.53;5032714;28;20390;-77
2021/10/31 03:12:04;;;;;;;12.43;8.25;;;;;;;10.83;nan;99911.50;5031275;28;20026;-77
2021/10/31 03:14:29;;;;;;;11.48;9.02;;;;;;;10.79;nan;99906.72;5031955;28;20514;-77
2021/10/31 03:16:55;;;;;;;12.93;8.73;;;;;;;10.73;nan;99905.59;5032720;28;20033;-76
2021/10/31 03:19:21;;;;;;;11.23;8.77;;;;;;;10.73;nan;99904.78;5032426;28;20072;-77
2021/10/31 03:21:46;;;;;;;10.00;8.18;;;;;;;10.65;nan;99897.66;5032816;28;20029;-77
2021/10/31 03:24:11;;;;;;;11.73;8.50;;;;;;;10.69;nan;99896.34;5030672;28;20123;-77
2021/10/31 03:26:37;;;;;;;9.15;7.78;;;;;;;10.70;nan;99903.28;5030804;28;20496;-77
2021/10/31 03:29:02;;;;;;;11.90;8.98;;;;;;;10.79;nan;99893.50;5032357;28;20195;-77
2021/10/31 03:31:27;;;;;;;11.13;7.47;;;;;;;10.78;nan;99892.69;5032898;28;20613;-77
2021/10/31 03:33:53;;;;;;;9.95;7.75;;;;;;;10.82;nan;99895.81;5032949;28;20125;-77
2021/10/31 03:36:18;;;;;;;11.63;7.25;;;;;;;10.77;nan;99884.91;5031906;28;20509;-77
2021/10/31 03:38:43;;;;;;;7.90;7.00;;;;;;;10.78;nan;99895.34;5032073;28;20032;-77
2021/10/31 03:41:09;;;;;;;10.65;8.00;;;;;;;10.68;nan;99900.00;5031275;28;20034;-77
2021/10/31 03:43:34;;;;;;;;;;;;;;;10.65;nan;99899.47;5037264;28;20045;-77
2021/10/31 03:46:00;;;;;;;9.98;7.75;;;;;;;10.60;nan;99892.06;5038216;28;19916;-76
2021/10/31 03:48:25;;;;;;;9.68;7.50;;;;;;;10.47;nan;99889.13;5037254;28;20041;-77
2021/10/31 03:50:50;;;;;;;10.25;7.40;;;;;;;10.46;nan;99879.50;5036010;28;20049;-77
2021/10/31 03:53:16;;;;;;;8.50;6.63;;;;;;;10.44;nan;99874.41;5031189;28;20045;-77
2021/10/31 03:55:41;;;;;;;8.10;6.47;;;;;;;10.45;nan;99875.22;5030709;28;20044;-77
2021/10/31 03:58:07;;;;;;;6.72;5.72;;;;;;;10.47;nan;99881.19;5030298;28;20072;-77
2021/10/31 04:00:33;;;;;;;7.35;5.80;;;;;;;10.52;nan;99876.22;5032112;28;20033;-77
2021/10/31 04:02:58;;;;;;;7.80;5.25;;;;;;;10.54;nan;99884.81;5031821;28;20124;-76
2021/10/31 04:05:23;;;;;;;7.18;5.35;;;;;;;10.53;nan;99893.72;5031843;28;20121;-77
2021/10/31 04:07:49;;;;;;;7.00;5.70;;;;;;;10.50;nan;99894.06;5030471;28;20033;-77
2021/10/31 04:10:14;;;;;;;6.28;5.03;;;;;;;10.47;nan;99897.84;5029525;28;20033;-77
2021/10/31 04:12:40;;;;;;;9.73;6.70;;;;;;;10.51;nan;99893.91;5031602;28;20049;-77
2021/10/31 04:15:06;;;;;;;6.80;5.15;;;;;;;10.46;nan;99896.19;5031448;28;20516;-76
2021/10/31 04:17:32;;;;;;;8.77;7.05;;;;;;;10.54;nan;99895.38;5030318;28;20033;-77
2021/10/31 04:19:57;;;;;;;10.75;6.78;;;;;;;10.63;nan;99894.38;5031545;28;20448;-77
2021/10/31 04:22:23;;;;;;;9.88;7.13;;;;;;;10.63;nan;99894.38;5030979;28;20037;-77
2021/10/31 04:24:48;;;;;;;9.75;7.25;;;;;;;10.67;nan;99900.16;5031379;28;20395;-77
2021/10/31 04:27:14;;;;;;;9.13;7.18;;;;;;;10.64;nan;99901.31;5031349;28;20038;-76
2021/10/31 04:29:39;;;;;;;7.93;5.97;;;;;;;10.62;nan;99896.19;5031515;28;20080;-77
2021/10/31 04:32:05;;;;;;;6.18;5.07;;;;;;;10.60;nan;99890.22;5029758;28;20029;-77
2021/10/31 04:34:30;;;;;;;10.30;6.93;;;;;;;10.59;nan;99885.94;5030914;28;20036;-76
2021/10/31 04:36:57;;;;;;;8.02;5.55;;;;;;;10.56;nan;99874.91;5031417;28;20029;-77
2021/10/31 04:39:22;;;;;;;8.35;6.45;;;;;;;10.49;nan;99887.94;5030891;28;20034;-77
2021/10/31 04:41:47;;;;;;;6.90;5.40;;;;;;;10.51;nan;99893.06;5029881;28;20071;-77
2021/10/31 04:44:14;;;;;;;5.93;4.82;;;;;;;10.49;nan;99882.66;5030770;28;20087;-77
2021/10/31 04:46:40;;;;;;;8.90;5.20;;;;;;;10.50;nan;99879.00;5030879;28;20134;-77
2021/10/31 04:49:05;;;;;;;6.50;5.10;;;;;;;10.49;nan;99882.66;5029413;28;20084;-77
2021/10/31 04:51:31;;;;;;;7.20;5.32;;;;;;;10.51;nan;99880.69;5030796;28;20525;-77
2021/10/31 04:53:56;;;;;;;9.18;6.68;;;;;;;10.44;nan;99894.72;5030548;28;20044;-76
2021/10/31 04:56:24;;;;;;;6.97;5.50;;;;;;;10.41;nan;99894.03;5029763;28;20557;-77
2021/10/31 04:58:51;;;;;;;7.80;5.80;;;;;;;10.38;nan;99883.00;5030218;28;20033;-77
2021/10/31 05:01:17;;;;;;;7.30;5.18;;;;;;;10.40;nan;99889.75;5028858;28;20068;-77
2021/10/31 05:03:44;;;;;;;5.57;4.75;;;;;;;10.40;nan;99888.94;5030814;28;20056;-77
2021/10/31 05:06:09;;;;;;;5.93;4.32;;;;;;;10.42;nan;99889.59;5029767;28;20088;-76
2021/10/31 05:08:34;;;;;;;8.02;6.05;;;;;;;10.43;nan;99887.78;5030158;28;20453;-77
2021/10/31 05:11:00;;;;;;;7.05;5.65;;;;;;;10.43;nan;99891.25;5030327;28;20117;-77
2021/10/31 05:13:25;;;;;;;9.77;6.53;;;;;;;10.47;nan;99887.28;5030235;28;20052;-77
2021/10/31 05:15:50;;;;;;;10.35;7.72;;;;;;;10.53;nan;99889.25;5030088;28;20037;-77
2021/10/31 05:18:16;;;;;;;9.02;6.88;;;;;;;10.54;nan;99880.34;5030287;28;20087;-77
2021/10/31 05:20:41;;;;;;;9.00;7.00;;;;;;;10.60;nan;99890.22;5030571;28;20034;-77
2021/10/31 05:23:06;;;;;;;8.77;6.53;;;;;;;10.64;nan;99882.78;5030135;28;20033;-77
2021/10/31 05:25:31;;;;;;;;;;;;;;;10.65;nan;99889.72;5030715;28;20120;-77
2021/10/31 05:27:57;;;;;;;11.00;8.00;;;;;;;10.70;nan;99868.06;5030101;28;19921;-77
2021/10/31 05:30:22;;;;;;;9.43;7.57;;;;;;;10.68;nan;99864.75;5029754;28;20056;-77
2021/10/31 05:32:49;;;;;;;8.95;6.88;;;;;;;10.72;nan;99872.19;5030229;28;20091;-77
2021/10/31 05:35:14;;;;;;;7.90;6.10;;;;;;;10.69;nan;99867.25;5030013;28;20159;-77
2021/10/31 05:37:48;;;;;;;7.57;6.45;;;;;;;10.69;nan;99863.78;5030199;28;20116;-77
2021/10/31 05:40:16;;;;;;;7.80;5.38;;;;;;;10.67;nan;99863.94;5028501;28;20513;-77
2021/10/31 05:42:42;;;;;;;6.40;5.03;;;;;;;10.67;nan;99861.31;5030383;28;20029;-77
2021/10/31 05:45:09;;;;;;;6.07;4.57;;;;;;;10.68;nan;99859.47;5030015;28;20037;-77
2021/10/31 05:47:40;;;;;;;5.13;3.90;;;;;;;10.69;nan;99871.72;5030029;28;20036;-77
2021/10/31 05:50:07;;;;;;;4.32;3.33;;;;;;;10.66;nan;99867.59;5029351;28;20041;-77
2021/10/31 05:52:33;;;;;;;6.85;4.80;;;;;;;10.71;nan;99872.38;5028206;28;20434;-77
2021/10/31 05:55:00;;;;;;;8.75;6.75;;;;;;;10.69;nan;99867.25;5028677;28;20490;-77
2021/10/31 05:57:28;;;;;;;8.18;6.50;;;;;;;10.69;nan;99863.78;5028741;28;20037;-77
2021/10/31 05:59:54;;;;;;;8.90;6.68;;;;;;;10.74;nan;99864.91;5028611;28;20313;-77
2021/10/31 06:02:19;;;;;;;5.65;4.60;;;;;;;10.81;nan;99865.91;5028248;28;20493;-77
2021/10/31 06:04:46;;;;;;;5.55;4.63;;;;;;;10.88;nan;99867.88;5029638;28;20037;-77
2021/10/31 06:07:12;;;;;;;6.38;5.03;;;;;;;10.88;nan;99867.88;5029656;28;20037;-77
2021/10/31 06:09:37;;;;;;;6.50;5.30;;;;;;;10.84;nan;99859.44;5030983;28;20517;-77
2021/10/31 06:12:04;;;;;;;5.75;4.72;;;;;;;10.84;nan;99859.44;5033377;28;20191;-77
2021/10/31 06:14:30;;;;;;;4.90;3.95;;;;;;;10.84;nan;99864.72;5033594;28;20552;-77
2021/10/31 06:17:01;;;;;;;5.20;3.90;;;;;;;10.85;nan;99863.75;5034113;28;20038;-77
2021/10/31 06:19:33;;;;;;;6.95;4.70;;;;;;;10.85;nan;99855.81;5032452;28;20499;-77
2021/10/31 06:21:59;;;;;;;5.93;5.03;;;;;;;10.86;nan;99861.91;5033881;28;20303;-77
2021/10/31 06:24:24;;;;;;;7.63;6.10;;;;;;;10.94;nan;99848.66;5032962;28;20033;-77
2021/10/31 06:26:50;;;;;;;7.68;5.80;;;;;;;10.95;nan;99850.31;5033823;28;20522;-77
2021/10/31 06:29:15;;;;;;;6.97;5.35;;;;;;;10.96;nan;99849.31;5033346;28;20033;-77
2021/10/31 06:31:41;;;;;;;6.43;5.00;;;;;;;11.07;nan;99854.25;5031083;28;20414;-77
2021/10/31 06:34:07;;;;;;;8.13;4.95;;;;;;;11.13;nan;99852.72;5032783;28;20459;-77
2021/10/31 06:36:32;;;;;;;6.78;5.40;;;;;;;11.16;nan;99839.16;5033442;28;20128;-77
2021/10/31 06:38:57;;;;;;;5.65;4.53;;;;;;;11.17;nan;99836.34;5031983;28;20200;-77
2021/10/31 06:41:23;;;;;;;6.35;4.80;;;;;;;11.19;nan;99836.16;5033471;28;20064;-77
2021/10/31 06:43:48;;;;;;;4.97;4.20;;;;;;;11.18;nan;99840.66;5033755;28;20034;-77
2021/10/31 06:46:14;;;;;;;4.97;3.90;;;;;;;11.17;nan;99846.91;5032824;28;20053;-77
2021/10/31 06:48:39;;;;;;;5.00;4.10;;;;;;;11.13;nan;99845.63;5031331;28;20030;-77
2021/10/31 06:51:04;;;;;;;4.78;3.75;;;;;;;11.13;nan;99840.34;5033138;28;20038;-77
2021/10/31 06:53:30;;;;;;;6.30;4.80;;;;;;;11.27;nan;99834.31;5031730;28;20410;-77
2021/10/31 06:55:55;;;;;;;5.47;4.53;;;;;;;11.11;nan;99833.53;5033152;28;20490;-77
2021/10/31 06:58:21;;;;;;;5.82;4.75;;;;;;;11.05;nan;99837.72;5032952;28;20099;-77
2021/10/31 07:00:46;;;;;;;;;;;;;;;11.03;nan;99823.81;5033880;28;20171;-77
2021/10/31 07:03:11;;;;;;;4.00;3.20;;;;;;;11.03;nan;99819.34;5031608;28;20114;-77
2021/10/31 07:05:37;;;;;;;6.30;4.78;;;;;;;11.14;nan;99804.94;5031321;28;20430;-77
2021/10/31 07:08:02;;;;;;;6.15;4.65;;;;;;;11.07;nan;99806.63;5029555;28;20163;-77
2021/10/31 07:10:28;;;;;;;5.35;4.40;;;;;;;11.04;nan;99804.31;5031603;28;20036;-77
2021/10/31 07:12:53;;;;;;;6.47;4.32;;;;;;;11.04;nan;99796.41;5030279;28;20121;-77
2021/10/31 07:15:18;;;;;;;6.27;4.83;;;;;;;11.25;nan;99796.63;5030201;28;20399;-77
2021/10/31 07:17:45;;;;;;;5.18;4.18;;;;;;;11.16;nan;99794.19;5031702;28;20036;-77
2021/10/31 07:20:13;;;;;;;5.47;3.90;;;;;;;11.14;nan;99789.06;5029177;28;20065;-77
2021/10/31 07:22:38;;;;;;;;;;;;;;;11.19;nan;99781.41;5032121;28;20029;-77
2021/10/31 07:25:04;;;;;;;4.30;3.63;;;;;;;11.18;nan;99786.91;5031311;28;19913;-77
2021/10/31 07:27:30;;;;;;;5.38;4.80;;;;;;;11.08;nan;99787.09;5031575;28;20034;-77
2021/10/31 07:29:55;;;;;;;5.40;4.20;;;;;;;11.12;nan;99792.88;5031537;28;20033;-77
2021/10/31 07:32:21;;;;;;;5.05;3.90;;;;;;;11.17;nan;99793.19;5029380;28;20069;-77
2021/10/31 07:34:47;;;;;;;5.45;4.32;;;;;;;11.19;nan;99783.25;5031131;28;20030;-77
2021/10/31 07:37:13;;;;;;;3.90;3.30;;;;;;;11.30;nan;99785.50;5030322;28;20449;-76
2021/10/31 07:39:40;;;;;;;5.38;4.22;;;;;;;11.42;nan;99788.56;5031404;28;20034;-77
2021/10/31 07:42:05;;;;;;;4.97;4.32;;;;;;;11.62;nan;99784.44;5029537;28;20402;-77
2021/10/31 07:44:31;;;;;;;4.70;4.00;;;;;;;11.78;nan;99786.16;5028533;28;20482;-77
2021/10/31 07:46:56;;;;;;;4.80;4.30;;;;;;;11.90;nan;99781.28;5028518;28;20522;-77
2021/10/31 07:49:22;;;;;;;;;;;;;;;11.97;nan;99776.94;5031906;28;20091;-77
2021/10/31 07:51:47;;;;;;;;;;;;;;;11.98;nan;99783.03;5031837;28;19921;-77
2021/10/31 07:54:12;;;;;;;5.80;4.40;;;;;;;12.02;nan;99785.16;5030633;28;19913;-77
2021/10/31 07:56:38;;;;;;;6.53;4.80;;;;;;;11.99;nan;99785.53;5031090;28;20273;-77
2021/10/31 07:59:03;;;;;;;7.57;4.78;;;;;;;12.09;nan;99782.63;5029661;28;20025;-77
2021/10/31 08:01:29;;;;;;;7.30;5.32;;;;;;;12.19;nan;99791.13;4986925;28;1235056;-77
2021/10/31 08:03:54;;;;;;;5.75;4.45;;;;;;;12.26;nan;99794.69;5032243;28;20025;-77
2021/10/31 08:06:20;;;;;;;6.55;5.10;;;;;;;12.39;nan;99787.94;5030695;28;20524;-77
2021/10/31 08:08:46;;;;;;;7.32;5.38;;;;;;;12.48;nan;99786.88;5032351;28;20030;-77
2021/10/31 08:11:11;;;;;;;;;;;;;;;12.68;nan;99781.81;5033295;28;20123;-77
2021/10/31 08:13:38;;;;;;;6.40;5.17;;;;;;;12.83;nan;99776.53;5032470;28;19924;-77
2021/10/31 08:16:03;;;;;;;7.43;5.22;;;;;;;12.99;nan;99773.66;5031839;28;20661;-77
2021/10/31 08:18:29;;;;;;;5.97;5.03;;;;;;;13.07;nan;99770.91;5032349;28;20026;-77
2021/10/31 08:20:54;;;;;;;6.75;5.60;;;;;;;13.12;nan;99767.69;5031397;28;20029;-77
2021/10/31 08:23:20;;;;;;;6.78;5.35;;;;;;;13.21;nan;99765.75;5031892;28;20025;-77
2021/10/31 08:25:46;;;;;;;7.80;6.13;;;;;;;13.32;nan;99757.31;5032152;28;20140;-77
2021/10/31 08:28:14;;;;;;;7.80;5.65;;;;;;;13.51;nan;99763.81;5032056;28;20034;-77
2021/10/31 08:30:44;;;;;;;;;;;;;;;13.59;nan;99761.06;5032963;28;20494;-77
2021/10/31 08:33:22;;;;;;;5.43;4.30;;;;;;;13.84;nan;99771.28;5031594;28;19921;-77
2021/10/31 08:35:48;;;;;;;5.78;4.72;;;;;;;14.09;nan;99764.53;5031900;28;20271;-77
2021/10/31 08:38:13;;;;;;;;;;;;;;;14.38;nan;99760.03;5032486;28;20029;-77
2021/10/31 08:40:40;;;;;;;6.40;5.07;;;;;;;14.47;nan;99750.03;5032492;28;19951;-77
2021/10/31 08:43:07;;;;;;;5.53;4.03;;;;;;;14.58;nan;99749.53;5032162;28;20033;-77
2021/10/31 08:45:33;;;;;;;;;;;;;;;14.50;nan;99739.84;5032399;28;20522;-77
2021/10/31 08:47:59;;;;;;;5.32;3.75;;;;;;;14.46;nan;99733.25;5031938;28;19913;-77
2021/10/31 08:50:24;;;;;;;5.85;3.90;;;;;;;14.40;nan;99731.41;5037390;28;20037;-77
2021/10/31 08:52:49;;;;;;;5.68;4.20;;;;;;;14.39;nan;99727.91;5038850;28;20092;-77
2021/10/31 08:55:14;;;;;;;5.50;3.78;;;;;;;14.35;nan;99731.16;5037680;28;20079;-77
2021/10/31 08:57:40;;;;;;;5.18;3.65;;;;;;;14.33;nan;99720.72;5040059;28;20034;-77
2021/10/31 09:00:07;;;;;;;5.00;4.03;;;;;;;14.34;nan;99710.91;5032263;28;20375;-77
2021/10/31 09:02:34;;;;;;;5.85;4.03;;;;;;;14.41;nan;99709.09;5030365;28;20041;-77
2021/10/31 09:04:59;;;;;;;5.75;4.10;;;;;;;14.50;nan;99693.78;5031545;28;20589;-77
2021/10/31 09:07:24;;;;;;;7.10;4.53;;;;;;;14.58;nan;99691.81;5031468;28;20060;-77
2021/10/31 09:09:49;;;;;;;5.35;4.05;;;;;;;14.66;nan;99685.50;5031670;28;20383;-77
2021/10/31 09:12:15;;;;;;;;;;;;;;;14.77;nan;99674.28;5031178;28;20033;-77
2021/10/31 09:14:40;;;;;;;6.07;4.45;;;;;;;14.79;nan;99676.75;5030803;28;20019;-77
2021/10/31 09:17:06;;;;;;;5.78;4.13;;;;;;;14.90;nan;99670.00;5031135;28;20038;-77
2021/10/31 09:19:32;;;;;;;5.20;4.00;;;;;;;14.98;nan;99665.31;5031448;28;20185;-77
2021/10/31 09:21:58;;;;;;;3.55;2.70;;;;;;;15.07;nan;99664.13;5030187;28;20403;-77
2021/10/31 09:24:23;;;;;;;3.80;3.13;;;;;;;15.09;nan;99661.25;5030722;28;20041;-77
2021/10/31 09:26:48;;;;;;;4.90;3.83;;;;;;;15.03;nan;99662.88;5031389;28;20029;-77
2021/10/31 09:29:14;;;;;;;;;;;;;;;15.23;nan;99659.41;5031840;28;20037;-77
2021/10/31 09:31:39;;;;;;;;;;;;;;;15.32;nan;99657.38;5031956;28;20393;-77
2021/10/31 09:34:05;;;;;;;5.27;3.83;;;;;;;15.40;nan;99652.69;5032079;28;20282;-77
2021/10/31 09:36:35;;;;;;;3.35;2.80;;;;;;;15.61;nan;99653.47;5032520;28;20486;-77
2021/10/31 09:39:05;;;;;;;4.13;3.15;;;;;;;15.58;nan;99659.22;5033921;28;20075;-77
2021/10/31 09:41:31;;;;;;;4.53;3.28;;;;;;;15.80;nan;99660.69;5025430;28;20108;-77
2021/10/31 09:44:10;;;;;;;3.33;2.30;;;;;;;15.98;nan;99656.56;5032079;28;20399;-77
2021/10/31 09:46:36;;;;;;;3.90;3.33;;;;;;;16.06;nan;99662.47;5024774;28;20449;-77
2021/10/31 09:49:03;;;;;;;;;;;;;;;16.28;nan;99654.19;5034494;28;20030;-77
2021/10/31 09:51:28;;;;;;;3.58;2.90;;;;;;;16.41;nan;99648.00;5033725;28;19963;-78
2021/10/31 09:53:57;;;;;;;2.55;2.13;;;;;;;16.58;nan;99643.81;5030808;28;20419;-77
2021/10/31 09:56:22;;;;;;;3.15;2.20;;;;;;;16.70;nan;99643.97;5031832;28;20399;-77
2021/10/31 09:58:50;;;;;;;2.83;2.30;;;;;;;16.68;nan;99649.50;5033839;28;20075;-77
2021/10/31 10:01:21;;;;;;;;;;;;;;;16.75;nan;99644.16;5034253;28;20034;-77
2021/10/31 10:03:53;;;;;;;2.97;1.90;;;;;;;16.76;nan;99641.28;5034327;28;19913;-78
2021/10/31 10:06:24;;;;;;;;;;;;;;;16.87;nan;99637.13;5034092;28;20172;-78
2021/10/31 10:09:10;;;;;;;2.83;1.98;;;;;;;16.73;nan;99631.03;5032604;28;20428;-78
2021/10/31 10:11:38;;;;;;;5.28;4.35;;;;;;;16.77;nan;99626.06;5034341;28;20036;-77
2021/10/31 10:14:09;;;;;;;5.20;4.70;;;;;;;16.84;nan;99624.22;5033617;28;20025;-78
2021/10/31 10:16:35;;;;;;;3.50;3.10;;;;;;;16.88;nan;99622.75;5031639;28;20037;-77
2021/10/31 10:19:14;;;;;;;4.72;2.45;;;;;;;16.86;nan;99624.00;5033464;28;20033;-78
2021/10/31 10:21:39;;;;;;;3.70;2.25;;;;;;;16.96;nan;99617.13;5033726;28;20030;-78
2021/10/31 10:24:11;;;;;;;4.50;3.20;;;;;;;16.94;nan;99615.72;5031895;28;20045;-77
2021/10/31 10:26:44;;;;;;;6.85;4.40;;;;;;;16.93;nan;99603.41;5033771;28;20025;-77
2021/10/31 10:29:21;;;;;;;5.97;3.60;;;;;;;17.03;nan;99609.09;5033532;28;20033;-78
2021/10/31 10:32:03;;;;;;;5.05;2.85;;;;;;;17.07;nan;99607.63;5033395;28;20403;-78
2021/10/31 10:34:33;;;;;;;3.35;2.33;;;;;;;17.09;nan;99608.25;5026321;28;20029;-78
2021/10/31 10:37:06;;;;;;;3.45;2.13;;;;;;;17.18;nan;99616.78;5033933;28;20518;-77
2021/10/31 10:39:33;;;;;;;3.33;2.20;;;;;;;17.17;nan;99609.81;5026252;28;20033;-77
2021/10/31 10:41:59;;;;;;;2.67;2.20;;;;;;;17.22;nan;99607.31;5033446;28;20038;-77
2021/10/31 10:44:29;;;;;;;3.13;2.30;;;;;;;17.20;nan;99612.03;5032512;28;20048;-78
2021/10/31 10:46:58;;;;;;;3.25;1.92;;;;;;;17.18;nan;99606.09;5033870;28;20034;-77
2021/10/31 10:49:25;;;;;;;2.42;1.67;;;;;;;17.16;nan;99603.66;5031444;28;20040;-77
2021/10/31 10:52:19;;;;;;;2.85;2.10;;;;;;;17.10;nan;99601.84;5033074;28;20521;-78
2021/10/31 10:54:52;;;;;;;2.92;1.83;;;;;;;17.29;nan;99593.91;5027556;28;20033;-77
2021/10/31 10:57:17;;;;;;;2.92;1.80;;;;;;;17.42;nan;99596.44;5033869;28;20206;-77
2021/10/31 10:59:43;;;;;;;2.70;1.67;;;;;;;17.45;nan;99582.66;5033712;28;20494;-77
2021/10/31 11:02:13;;;;;;;4.90;1.90;;;;;;;17.53;nan;99582.38;5032918;28;20037;-77
2021/10/31 11:04:41;;;;;;;2.80;1.75;;;;;;;17.59;nan;99577.97;5032917;28;20029;-77
2021/10/31 11:07:07;;;;;;;3.45;1.85;;;;;;;17.60;nan;99568.94;5032014;28;20037;-77
2021/10/31 11:09:44;;;;;;;3.05;1.90;;;;;;;17.58;nan;99566.47;5033566;28;20022;-77
2021/10/31 11:12:32;;;;;;;2.30;1.75;;;;;;;17.54;nan;99567.97;5033320;28;20033;-77
2021/10/31 11:15:01;;;;;;;2.85;1.80;;;;;;;17.67;nan;99568.88;5026297;28;20075;-77
2021/10/31 11:17:26;;;;;;;2.60;1.80;;;;;;;17.75;nan;99569.38;5033530;28;20075;-77
2021/10/31 11:19:53;;;;;;;2.72;2.05;;;;;;;17.78;nan;99557.41;5032331;28;20297;-77
2021/10/31 11:22:20;;;;;;;2.38;1.60;;;;;;;17.82;nan;99561.31;5033169;28;20025;-77
2021/10/31 11:24:48;;;;;;;2.80;1.60;;;;;;;17.83;nan;99545.06;5033380;28;20131;-77
2021/10/31 11:27:19;;;;;;;2.70;1.63;;;;;;;17.85;nan;99542.16;5032618;28;20033;-77
2021/10/31 11:29:46;;;;;;;2.42;1.70;;;;;;;17.94;nan;99540.81;5033723;28;20030;-77
2021/10/31 11:32:15;;;;;;;4.13;2.05;;;;;;;17.95;nan;99541.66;5032179;28;20125;-76
2021/10/31 11:34:52;;;;;;;2.92;2.00;;;;;;;18.01;nan;99536.19;5033481;28;20619;-76
2021/10/31 11:37:21;;;;;;;3.05;1.60;;;;;;;17.98;nan;99528.63;5032114;28;20037;-76
2021/10/31 11:39:49;;;;;;;2.47;1.33;;;;;;;18.07;nan;99522.97;5031773;28;20025;-76
2021/10/31 11:42:16;;;;;;;2.30;1.50;;;;;;;18.04;nan;99505.50;5032363;28;20071;-77
2021/10/31 11:45:06;;;;;;;2.17;1.20;;;;;;;18.00;nan;99501.66;5032812;28;20746;-76
2021/10/31 11:47:32;;;;;;;1.63;1.20;;;;;;;17.95;nan;99488.16;5032644;28;20033;-76
2021/10/31 11:50:06;;;;;;;1.50;1.02;;;;;;;17.92;nan;99478.69;5032266;28;20029;-77
2021/10/31 11:52:40;;;;;;;1.75;1.20;;;;;;;17.95;nan;99467.56;5030637;28;20033;-76
2021/10/31 11:55:24;;;;;;;1.40;1.00;;;;;;;17.93;nan;99458.97;5032298;28;20052;-76
2021/10/31 11:58:02;;;;;;;2.10;1.00;;;;;;;18.01;nan;99460.50;5029609;28;20903;-76